Ship Status Report: callsign PC6830

sailwx.info

Track history (hours):
 
Tides and Currents Weather Stations Pressure Air Temp Water Temp Dewpoint Dewpoint Depression Visibility Wind Speed Wind Dir Waves Ship Positions

Callsign PC6830 (name unknown)

Last reported at 2017-Oct-31 15:02 UTC. Time now 2018-Apr-20 05:12 UTC.
Position N 27°54' W 015°22'.
Warning: this ship's position is months out of date.

Length 14 m.

Type: Ship. MMSI: 244110220.

Date/timePositionNaut miles runAvg speedWind from/ knotsBaromVisibWave heightAir tempDewpointWater temp
2017-Oct-31 15:02N 27°54' W 015°22'0 7.9
2017-Oct-31 15:00N 27°54' W 015°22'4 7.7
2017-Oct-31 14:30N 27°58' W 015°21'4 7.4
2017-Oct-31 14:00N 28°01' W 015°22'4 7.1
2017-Oct-31 13:30N 28°05' W 015°24'4 7.1
2017-Oct-31 12:59N 28°08' W 015°25'0 0.5
2017-Oct-31 12:17N 28°08' W 015°26'0 0.0
2017-Oct-31 11:50N 28°08' W 015°26'0 0.0
2017-Oct-31 11:23N 28°08' W 015°26'0 0.0
2017-Oct-31 10:53N 28°08' W 015°26'0 0.0
2017-Oct-31 10:17N 28°08' W 015°26'1 3.1
2017-Oct-31 09:56N 28°07' W 015°25'2 4.6
2017-Oct-31 09:25N 28°08' W 015°22'2 4.5
2017-Oct-31 08:55N 28°09' W 015°20'2 4.5
2017-Oct-31 08:31N 28°10' W 015°18'2 4.4
2017-Oct-31 08:00N 28°11' W 015°16'2 4.3
2017-Oct-31 07:30N 28°12' W 015°13'3 5.2
2017-Oct-31 07:00N 28°13' W 015°11'3 5.1
2017-Oct-31 06:30N 28°14' W 015°08'3 5.3
2017-Oct-31 06:00N 28°15' W 015°05'3 5.2
2017-Oct-31 05:30N 28°16' W 015°03'2 4.0
2017-Oct-31 05:00N 28°17' W 015°01'2 4.3
2017-Oct-31 04:29N 28°18' W 014°58'2 4.5
2017-Oct-31 03:59N 28°19' W 014°56'3 4.8
2017-Oct-31 03:28N 28°20' W 014°53'3 6.1
2017-Oct-31 02:58N 28°21' W 014°50'4 6.2
2017-Oct-31 02:17N 28°23' W 014°46'7 6.1
2017-Oct-31 01:04N 28°26' W 014°38'1 6.0
2017-Oct-31 00:55N 28°26' W 014°37'2 5.8
2017-Oct-31 00:30N 28°28' W 014°35'3 5.8
2017-Oct-31 00:00N 28°29' W 014°32'3 5.6
2017-Oct-30 23:30N 28°30' W 014°29'2 4.4
2017-Oct-30 23:01N 28°32' W 014°27'2 4.8
2017-Oct-30 22:30N 28°33' W 014°25'2 4.8
2017-Oct-30 22:00N 28°35' W 014°23'2 4.7
2017-Oct-30 21:30N 28°36' W 014°21'2 4.8
2017-Oct-30 21:00N 28°37' W 014°18'2 4.8
2017-Oct-30 20:30N 28°39' W 014°16'3 4.9
2017-Oct-30 19:49N 28°40' W 014°13'2 4.9
2017-Oct-30 19:28N 28°41' W 014°11'2 4.7
2017-Oct-30 18:57N 28°43' W 014°09'2 4.7
2017-Oct-30 18:27N 28°44' W 014°07'2 4.7
2017-Oct-30 17:56N 28°45' W 014°04'3 5.6
2017-Oct-30 17:26N 28°46' W 014°01'3 5.6
2017-Oct-30 16:53N 28°48' W 013°58'3 5.0
2017-Oct-30 16:13N 28°49' W 013°55'1 6.2
2017-Oct-30 16:00N 28°50' W 013°53'4 1.0
2017-Oct-30 11:46N 28°51' W 013°49'0 0.0
2017-Oct-30 11:28N 28°51' W 013°49'0 0.0
2017-Oct-30 10:59N 28°51' W 013°49'0 0.0
2017-Oct-30 10:28N 28°51' W 013°49'0 0.0
2017-Oct-30 09:58N 28°51' W 013°49'0 0.0
2017-Oct-30 09:29N 28°51' W 013°49'0 0.0
2017-Oct-30 00:02N 28°51' W 013°49'0 0.1
2017-Oct-29 23:59N 28°51' W 013°49'0 0.0
2017-Oct-29 23:29N 28°51' W 013°49'0 0.0
2017-Oct-28 14:44N 28°51' W 013°49'0 0.0
2017-Oct-28 10:16N 28°51' W 013°49'0 0.0
2017-Oct-28 09:43N 28°51' W 013°49'0 0.0
2017-Oct-28 09:28N 28°51' W 013°49'0 0.0
2017-Oct-28 08:56N 28°51' W 013°49'0 0.0
2017-Oct-28 08:29N 28°51' W 013°49'0 0.0
2017-Oct-28 07:59N 28°51' W 013°49'0 0.0
2017-Oct-28 07:26N 28°51' W 013°49'0 0.0
2017-Oct-28 06:54N 28°51' W 013°49'0 0.0
2017-Oct-28 06:16N 28°51' W 013°49'0 0.0
2017-Oct-28 05:52N 28°51' W 013°49'0 0.0
2017-Oct-28 04:57N 28°51' W 013°49'0 0.0
2017-Oct-28 02:43N 28°51' W 013°49'0 0.0
2017-Oct-28 01:40N 28°51' W 013°49'  
2017-Oct-25 07:45N 28°51' W 013°47'0 0.0
2017-Oct-25 07:30N 28°51' W 013°47'0 0.0
2017-Oct-25 05:50N 28°51' W 013°47'0 0.0
2017-Oct-25 03:21N 28°51' W 013°47'0 0.0
2017-Oct-25 02:51N 28°51' W 013°47'0 0.0
2017-Oct-25 02:30N 28°51' W 013°47'0 0.0
2017-Oct-25 01:59N 28°51' W 013°47'0 0.0
2017-Oct-25 01:24N 28°51' W 013°47'0 0.0
2017-Oct-25 00:29N 28°51' W 013°47'0 0.0
2017-Oct-24 23:58N 28°51' W 013°47'0 0.0
2017-Oct-24 23:21N 28°51' W 013°47'0 0.0
2017-Oct-24 22:24N 28°51' W 013°47'0 0.0
2017-Oct-24 21:59N 28°51' W 013°47'0 0.0
2017-Oct-24 21:29N 28°51' W 013°47'0 0.0
2017-Oct-24 20:54N 28°51' W 013°47'0 0.0
2017-Oct-24 20:07N 28°51' W 013°47'0 0.1
2017-Oct-24 20:01N 28°51' W 013°47'0 0.0
2017-Oct-24 18:56N 28°51' W 013°47'2 3.4
2017-Oct-24 18:29N 28°51' W 013°46'3 5.6
2017-Oct-24 18:00N 28°52' W 013°43'3 5.8
2017-Oct-24 17:29N 28°53' W 013°40'3 6.3
2017-Oct-24 17:00N 28°55' W 013°37'3 6.7
2017-Oct-24 16:30N 28°56' W 013°34'3 6.3
2017-Oct-24 16:00N 28°58' W 013°30'3 6.1
2017-Oct-24 15:30N 28°60' W 013°28'3 6.1
2017-Oct-24 15:00N 29°02' W 013°26'3 5.8
2017-Oct-24 14:29N 29°05' W 013°24'  
Track history (hours):
 
Tides and Currents Weather Stations Pressure Air Temp Water Temp Dewpoint Dewpoint Depression Visibility Wind Speed Wind Dir Waves Ship Positions

Callsign PC6830 (name unknown)

Last reported at 2017-Oct-31 15:02 UTC. Time now 2018-Apr-20 05:12 UTC.
Position N 27°54' W 015°22'.
Warning: this ship's position is months out of date.

Length 14 m.

Type: Ship. MMSI: 244110220.

Date/timePositionNaut miles runAvg speedWind from/ knotsBaromVisibWave heightAir tempDewpointWater temp
2017-Oct-31 15:02N 27°54' W 015°22'0 7.9
2017-Oct-31 15:00N 27°54' W 015°22'4 7.7
2017-Oct-31 14:30N 27°58' W 015°21'4 7.4
2017-Oct-31 14:00N 28°01' W 015°22'4 7.1
2017-Oct-31 13:30N 28°05' W 015°24'4 7.1
2017-Oct-31 12:59N 28°08' W 015°25'0 0.5
2017-Oct-31 12:17N 28°08' W 015°26'0 0.0
2017-Oct-31 11:50N 28°08' W 015°26'0 0.0
2017-Oct-31 11:23N 28°08' W 015°26'0 0.0
2017-Oct-31 10:53N 28°08' W 015°26'0 0.0
2017-Oct-31 10:17N 28°08' W 015°26'1 3.1
2017-Oct-31 09:56N 28°07' W 015°25'2 4.6
2017-Oct-31 09:25N 28°08' W 015°22'2 4.5
2017-Oct-31 08:55N 28°09' W 015°20'2 4.5
2017-Oct-31 08:31N 28°10' W 015°18'2 4.4
2017-Oct-31 08:00N 28°11' W 015°16'2 4.3
2017-Oct-31 07:30N 28°12' W 015°13'3 5.2
2017-Oct-31 07:00N 28°13' W 015°11'3 5.1
2017-Oct-31 06:30N 28°14' W 015°08'3 5.3
2017-Oct-31 06:00N 28°15' W 015°05'3 5.2
2017-Oct-31 05:30N 28°16' W 015°03'2 4.0
2017-Oct-31 05:00N 28°17' W 015°01'2 4.3
2017-Oct-31 04:29N 28°18' W 014°58'2 4.5
2017-Oct-31 03:59N 28°19' W 014°56'3 4.8
2017-Oct-31 03:28N 28°20' W 014°53'3 6.1
2017-Oct-31 02:58N 28°21' W 014°50'4 6.2
2017-Oct-31 02:17N 28°23' W 014°46'7 6.1
2017-Oct-31 01:04N 28°26' W 014°38'1 6.0
2017-Oct-31 00:55N 28°26' W 014°37'2 5.8
2017-Oct-31 00:30N 28°28' W 014°35'3 5.8
2017-Oct-31 00:00N 28°29' W 014°32'3 5.6
2017-Oct-30 23:30N 28°30' W 014°29'2 4.4
2017-Oct-30 23:01N 28°32' W 014°27'2 4.8
2017-Oct-30 22:30N 28°33' W 014°25'2 4.8
2017-Oct-30 22:00N 28°35' W 014°23'2 4.7
2017-Oct-30 21:30N 28°36' W 014°21'2 4.8
2017-Oct-30 21:00N 28°37' W 014°18'2 4.8
2017-Oct-30 20:30N 28°39' W 014°16'3 4.9
2017-Oct-30 19:49N 28°40' W 014°13'2 4.9
2017-Oct-30 19:28N 28°41' W 014°11'2 4.7
2017-Oct-30 18:57N 28°43' W 014°09'2 4.7
2017-Oct-30 18:27N 28°44' W 014°07'2 4.7
2017-Oct-30 17:56N 28°45' W 014°04'3 5.6
2017-Oct-30 17:26N 28°46' W 014°01'3 5.6
2017-Oct-30 16:53N 28°48' W 013°58'3 5.0
2017-Oct-30 16:13N 28°49' W 013°55'1 6.2
2017-Oct-30 16:00N 28°50' W 013°53'4 1.0
2017-Oct-30 11:46N 28°51' W 013°49'0 0.0
2017-Oct-30 11:28N 28°51' W 013°49'0 0.0
2017-Oct-30 10:59N 28°51' W 013°49'0 0.0
2017-Oct-30 10:28N 28°51' W 013°49'0 0.0
2017-Oct-30 09:58N 28°51' W 013°49'0 0.0
2017-Oct-30 09:29N 28°51' W 013°49'0 0.0
2017-Oct-30 00:02N 28°51' W 013°49'0 0.1
2017-Oct-29 23:59N 28°51' W 013°49'0 0.0
2017-Oct-29 23:29N 28°51' W 013°49'0 0.0
2017-Oct-28 14:44N 28°51' W 013°49'0 0.0
2017-Oct-28 10:16N 28°51' W 013°49'0 0.0
2017-Oct-28 09:43N 28°51' W 013°49'0 0.0
2017-Oct-28 09:28N 28°51' W 013°49'0 0.0
2017-Oct-28 08:56N 28°51' W 013°49'0 0.0
2017-Oct-28 08:29N 28°51' W 013°49'0 0.0
2017-Oct-28 07:59N 28°51' W 013°49'0 0.0
2017-Oct-28 07:26N 28°51' W 013°49'0 0.0
2017-Oct-28 06:54N 28°51' W 013°49'0 0.0
2017-Oct-28 06:16N 28°51' W 013°49'0 0.0
2017-Oct-28 05:52N 28°51' W 013°49'0 0.0
2017-Oct-28 04:57N 28°51' W 013°49'0 0.0
2017-Oct-28 02:43N 28°51' W 013°49'0 0.0
2017-Oct-28 01:40N 28°51' W 013°49'  
2017-Oct-25 07:45N 28°51' W 013°47'0 0.0
2017-Oct-25 07:30N 28°51' W 013°47'0 0.0
2017-Oct-25 05:50N 28°51' W 013°47'0 0.0
2017-Oct-25 03:21N 28°51' W 013°47'0 0.0
2017-Oct-25 02:51N 28°51' W 013°47'0 0.0
2017-Oct-25 02:30N 28°51' W 013°47'0 0.0
2017-Oct-25 01:59N 28°51' W 013°47'0 0.0
2017-Oct-25 01:24N 28°51' W 013°47'0 0.0
2017-Oct-25 00:29N 28°51' W 013°47'0 0.0
2017-Oct-24 23:58N 28°51' W 013°47'0 0.0
2017-Oct-24 23:21N 28°51' W 013°47'0 0.0
2017-Oct-24 22:24N 28°51' W 013°47'0 0.0
2017-Oct-24 21:59N 28°51' W 013°47'0 0.0
2017-Oct-24 21:29N 28°51' W 013°47'0 0.0
2017-Oct-24 20:54N 28°51' W 013°47'0 0.0
2017-Oct-24 20:07N 28°51' W 013°47'0 0.1
2017-Oct-24 20:01N 28°51' W 013°47'0 0.0
2017-Oct-24 18:56N 28°51' W 013°47'2 3.4
2017-Oct-24 18:29N 28°51' W 013°46'3 5.6
2017-Oct-24 18:00N 28°52' W 013°43'3 5.8
2017-Oct-24 17:29N 28°53' W 013°40'3 6.3
2017-Oct-24 17:00N 28°55' W 013°37'3 6.7
2017-Oct-24 16:30N 28°56' W 013°34'3 6.3
2017-Oct-24 16:00N 28°58' W 013°30'3 6.1
2017-Oct-24 15:30N 28°60' W 013°28'3 6.1
2017-Oct-24 15:00N 29°02' W 013°26'3 5.8
2017-Oct-24 14:29N 29°05' W 013°24'  

Dump ship's entire track history